Current Conditions
Mostly Cloudy
Conditions




Pressure
986.92 (mb) - 29.14 (inHG)
Visibility

10.0 (km) - 6.2 (miles)
   Temperature
3  °C
37°F
1  °C
Dewpoint
87  %
 Humidity
   Wind Speed
5.4  m/s
12  mph
19  km/h
10  kts
   Wind Direction
 190°
Due South
   Airport Data
ENAL
Location Ă…lesund Airport 10 km (6.22 mi)
Metar :ENAL 231920Z 19010KT 9999 -DZ BKN019 03/01 Q0987
Sat 23rd January 21:20 pm
   Raw Metar Info
Raw METAR is the most common format in the world for the transmission of observational weather data. It is highly standardized through the International Civil Aviation Organization (ICAO), which allows it to be understood throughout most of the world.
   API Info
Data Provided by
https://www.checkwx.com/weather/ENAL
   © Info
CSS/SVG/PHP scripts were developed by weather34.com for use in the weather34 template © 2015-2021

Guide Info provided by Metar-Wikipedia